sensor_id;sensor_type;location;lat;lon;timestamp;pressure;altitude;pressure_sealevel;temperature;humidity
77159;BME280;66129;45.890;13.714;2023-03-01T00:00:40;101429.13;;;4.98;53.70
77159;BME280;66129;45.890;13.714;2023-03-01T00:03:08;101475.72;;;5.14;53.62
77159;BME280;66129;45.890;13.714;2023-03-01T00:05:55;101421.13;;;4.90;53.53
77159;BME280;66129;45.890;13.714;2023-03-01T00:08:39;101464.53;;;5.27;53.37
77159;BME280;66129;45.890;13.714;2023-03-01T00:11:43;101334.22;;;4.64;52.83
77159;BME280;66129;45.890;13.714;2023-03-01T00:14:15;101393.94;;;5.05;53.05
77159;BME280;66129;45.890;13.714;2023-03-01T00:16:49;101409.50;;;5.11;52.51
77159;BME280;66129;45.890;13.714;2023-03-01T00:19:28;101334.22;;;4.64;52.92
77159;BME280;66129;45.890;13.714;2023-03-01T00:21:59;101347.88;;;4.66;52.79
77159;BME280;66129;45.890;13.714;2023-03-01T00:24:42;101313.91;;;4.64;52.72
77159;BME280;66129;45.890;13.714;2023-03-01T00:27:13;101371.00;;;4.88;52.57
77159;BME280;66129;45.890;13.714;2023-03-01T00:29:52;101349.03;;;4.72;52.82
77159;BME280;66129;45.890;13.714;2023-03-01T00:32:32;101371.97;;;5.06;52.68
77159;BME280;66129;45.890;13.714;2023-03-01T00:34:57;101404.38;;;5.10;52.55
77159;BME280;66129;45.890;13.714;2023-03-01T00:37:48;101415.94;;;5.21;52.43
77159;BME280;66129;45.890;13.714;2023-03-01T00:40:21;101436.63;;;5.28;52.55
77159;BME280;66129;45.890;13.714;2023-03-01T00:42:46;101339.25;;;4.80;52.36
77159;BME280;66129;45.890;13.714;2023-03-01T00:45:12;101437.75;;;5.33;52.26
77159;BME280;66129;45.890;13.714;2023-03-01T00:47:46;101433.72;;;5.37;52.15
77159;BME280;66129;45.890;13.714;2023-03-01T00:50:25;101320.25;;;4.72;52.18
77159;BME280;66129;45.890;13.714;2023-03-01T01:02:21;101296.88;;;4.61;51.96
77159;BME280;66129;45.890;13.714;2023-03-01T01:05:14;101384.91;;;5.10;52.20
77159;BME280;66129;45.890;13.714;2023-03-01T01:08:12;101421.69;;;5.34;52.01
77159;BME280;66129;45.890;13.714;2023-03-01T01:10:38;101399.47;;;5.30;51.87
77159;BME280;66129;45.890;13.714;2023-03-01T01:13:24;101304.13;;;4.71;51.47
77159;BME280;66129;45.890;13.714;2023-03-01T01:16:09;101311.75;;;4.71;52.26
77159;BME280;66129;45.890;13.714;2023-03-01T01:18:38;101338.31;;;4.94;52.13
77159;BME280;66129;45.890;13.714;2023-03-01T01:23:58;101341.81;;;4.80;53.02
77159;BME280;66129;45.890;13.714;2023-03-01T01:26:37;101330.38;;;4.88;52.68
77159;BME280;66129;45.890;13.714;2023-03-01T01:29:10;101341.06;;;4.98;52.77
77159;BME280;66129;45.890;13.714;2023-03-01T01:31:59;101282.81;;;4.68;52.84
77159;BME280;66129;45.890;13.714;2023-03-01T01:34:53;101363.25;;;5.34;52.52
77159;BME280;66129;45.890;13.714;2023-03-01T01:37:41;101324.41;;;5.03;52.38
77159;BME280;66129;45.890;13.714;2023-03-01T01:40:16;101265.19;;;4.71;52.44
77159;BME280;66129;45.890;13.714;2023-03-01T01:43:04;101307.16;;;5.14;52.30
77159;BME280;66129;45.890;13.714;2023-03-01T01:45:38;101332.97;;;5.21;52.17
77159;BME280;66129;45.890;13.714;2023-03-01T01:48:16;101270.66;;;4.78;52.15
77159;BME280;66129;45.890;13.714;2023-03-01T01:50:57;101312.47;;;5.18;52.50
77159;BME280;66129;45.890;13.714;2023-03-01T01:53:59;101224.94;;;4.78;52.56
77159;BME280;66129;45.890;13.714;2023-03-01T01:56:48;101299.25;;;5.25;52.28
77159;BME280;66129;45.890;13.714;2023-03-01T01:59:19;101320.41;;;5.42;52.35
77159;BME280;66129;45.890;13.714;2023-03-01T02:01:50;101237.22;;;4.87;52.32
77159;BME280;66129;45.890;13.714;2023-03-01T02:04:18;101246.25;;;4.98;52.04
77159;BME280;66129;45.890;13.714;2023-03-01T02:06:50;101262.38;;;5.33;52.10
77159;BME280;66129;45.890;13.714;2023-03-01T02:09:18;101247.88;;;5.31;52.08
77159;BME280;66129;45.890;13.714;2023-03-01T02:11:47;101308.16;;;5.50;51.94
77159;BME280;66129;45.890;13.714;2023-03-01T02:14:16;101217.81;;;5.05;52.34
77159;BME280;66129;45.890;13.714;2023-03-01T02:16:45;101261.22;;;5.27;52.20
77159;BME280;66129;45.890;13.714;2023-03-01T02:19:51;101251.41;;;5.34;51.95
77159;BME280;66129;45.890;13.714;2023-03-01T02:22:51;101224.78;;;5.09;52.13
77159;BME280;66129;45.890;13.714;2023-03-01T02:25:44;101318.16;;;5.47;52.25
77159;BME280;66129;45.890;13.714;2023-03-01T02:28:36;101290.34;;;5.50;52.24
77159;BME280;66129;45.890;13.714;2023-03-01T02:31:18;101287.09;;;5.53;52.13
77159;BME280;66129;45.890;13.714;2023-03-01T02:34:03;101150.56;;;4.81;51.83
77159;BME280;66129;45.890;13.714;2023-03-01T02:37:09;101274.28;;;5.51;52.00
77159;BME280;66129;45.890;13.714;2023-03-01T02:39:43;101295.53;;;5.52;52.11
77159;BME280;66129;45.890;13.714;2023-03-01T02:42:20;101284.56;;;5.53;52.09
77159;BME280;66129;45.890;13.714;2023-03-01T02:45:03;101211.53;;;5.33;51.88
77159;BME280;66129;45.890;13.714;2023-03-01T02:47:29;101260.44;;;5.62;51.96
77159;BME280;66129;45.890;13.714;2023-03-01T02:50:10;101145.44;;;4.97;51.78
77159;BME280;66129;45.890;13.714;2023-03-01T02:53:15;101252.31;;;5.52;51.98
77159;BME280;66129;45.890;13.714;2023-03-01T02:55:57;101225.56;;;5.43;51.53
77159;BME280;66129;45.890;13.714;2023-03-01T02:58:41;101206.53;;;5.52;51.64
77159;BME280;66129;45.890;13.714;2023-03-01T03:01:22;101273.63;;;5.73;51.22
77159;BME280;66129;45.890;13.714;2023-03-01T03:07:14;101214.81;;;5.48;51.33
77159;BME280;66129;45.890;13.714;2023-03-01T03:10:14;101194.41;;;5.29;51.63
77159;BME280;66129;45.890;13.714;2023-03-01T03:13:12;101190.75;;;5.42;51.74
77159;BME280;66129;45.890;13.714;2023-03-01T03:15:58;101180.03;;;5.47;51.76
77159;BME280;66129;45.890;13.714;2023-03-01T03:18:27;101137.88;;;5.16;51.68
77159;BME280;66129;45.890;13.714;2023-03-01T03:24:21;101180.16;;;5.67;51.19
77159;BME280;66129;45.890;13.714;2023-03-01T03:26:46;101200.78;;;5.56;51.35
77159;BME280;66129;45.890;13.714;2023-03-01T03:29:12;101165.25;;;5.39;51.34
77159;BME280;66129;45.890;13.714;2023-03-01T03:31:43;101130.22;;;5.33;51.46
77159;BME280;66129;45.890;13.714;2023-03-01T03:37:22;101169.81;;;5.64;51.17
77159;BME280;66129;45.890;13.714;2023-03-01T03:40:24;101110.53;;;5.29;51.18
77159;BME280;66129;45.890;13.714;2023-03-01T03:42:56;101165.47;;;5.62;51.26
77159;BME280;66129;45.890;13.714;2023-03-01T03:45:24;101117.81;;;5.22;50.97
77159;BME280;66129;45.890;13.714;2023-03-01T03:51:20;101240.63;;;5.92;51.04
77159;BME280;66129;45.890;13.714;2023-03-01T03:53:47;101156.66;;;5.73;51.23
77159;BME280;66129;45.890;13.714;2023-03-01T03:56:22;101104.25;;;5.39;51.10
77159;BME280;66129;45.890;13.714;2023-03-01T03:59:09;101099.16;;;5.39;51.28
77159;BME280;66129;45.890;13.714;2023-03-01T04:01:44;101121.13;;;5.38;51.39
77159;BME280;66129;45.890;13.714;2023-03-01T04:07:13;101154.63;;;5.66;51.75
77159;BME280;66129;45.890;13.714;2023-03-01T04:09:38;101158.06;;;5.66;52.10
77159;BME280;66129;45.890;13.714;2023-03-01T04:12:04;101109.97;;;5.35;52.87
77159;BME280;66129;45.890;13.714;2023-03-01T04:14:36;101133.19;;;5.42;52.85
77159;BME280;66129;45.890;13.714;2023-03-01T04:17:02;101091.38;;;5.36;52.10
77159;BME280;66129;45.890;13.714;2023-03-01T04:19:43;101105.25;;;5.25;51.81
77159;BME280;66129;45.890;13.714;2023-03-01T04:22:22;101092.19;;;5.35;51.69
77159;BME280;66129;45.890;13.714;2023-03-01T04:25:13;101198.66;;;6.01;51.78
77159;BME280;66129;45.890;13.714;2023-03-01T04:27:40;101175.09;;;5.86;51.36
77159;BME280;66129;45.890;13.714;2023-03-01T04:30:07;101173.88;;;5.78;51.62
77159;BME280;66129;45.890;13.714;2023-03-01T04:33:03;101075.25;;;5.35;51.45
77159;BME280;66129;45.890;13.714;2023-03-01T04:35:38;101132.22;;;5.57;51.75
77159;BME280;66129;45.890;13.714;2023-03-01T04:38:13;101206.63;;;5.90;51.48
77159;BME280;66129;45.890;13.714;2023-03-01T04:40:44;101096.09;;;5.28;51.94
77159;BME280;66129;45.890;13.714;2023-03-01T04:43:29;101166.69;;;5.70;52.20
77159;BME280;66129;45.890;13.714;2023-03-01T04:46:08;101113.38;;;5.35;52.64
77159;BME280;66129;45.890;13.714;2023-03-01T04:48:53;101172.56;;;5.69;52.05
77159;BME280;66129;45.890;13.714;2023-03-01T04:51:22;101168.88;;;5.62;52.28
77159;BME280;66129;45.890;13.714;2023-03-01T04:53:55;101214.25;;;5.90;52.57
77159;BME280;66129;45.890;13.714;2023-03-01T04:56:39;101103.53;;;5.24;52.59
77159;BME280;66129;45.890;13.714;2023-03-01T04:59:08;101211.00;;;5.92;52.75
77159;BME280;66129;45.890;13.714;2023-03-01T05:01:44;101124.75;;;5.43;52.88
77159;BME280;66129;45.890;13.714;2023-03-01T05:04:18;101076.84;;;5.14;52.86
77159;BME280;66129;45.890;13.714;2023-03-01T05:06:44;101149.22;;;5.58;52.94
77159;BME280;66129;45.890;13.714;2023-03-01T05:09:19;101099.06;;;5.37;53.32
77159;BME280;66129;45.890;13.714;2023-03-01T05:11:48;101085.69;;;5.22;53.11
77159;BME280;66129;45.890;13.714;2023-03-01T05:14:31;101139.97;;;5.60;53.08
77159;BME280;66129;45.890;13.714;2023-03-01T05:17:28;101081.00;;;5.31;52.89
77159;BME280;66129;45.890;13.714;2023-03-01T05:20:30;101137.72;;;5.66;53.24
77159;BME280;66129;45.890;13.714;2023-03-01T05:23:33;101072.66;;;5.34;53.19
77159;BME280;66129;45.890;13.714;2023-03-01T05:26:42;101057.03;;;5.26;53.18
77159;BME280;66129;45.890;13.714;2023-03-01T05:29:07;101093.00;;;5.52;53.25
77159;BME280;66129;45.890;13.714;2023-03-01T05:31:35;101133.88;;;5.57;53.19
77159;BME280;66129;45.890;13.714;2023-03-01T05:34:00;101085.31;;;5.51;52.93
77159;BME280;66129;45.890;13.714;2023-03-01T05:36:28;101086.91;;;5.49;52.54
77159;BME280;66129;45.890;13.714;2023-03-01T05:38:53;101098.59;;;5.45;53.10
77159;BME280;66129;45.890;13.714;2023-03-01T05:41:19;101093.16;;;5.19;53.49
77159;BME280;66129;45.890;13.714;2023-03-01T05:43:44;101166.13;;;5.58;53.57
77159;BME280;66129;45.890;13.714;2023-03-01T05:46:10;101169.41;;;5.74;54.30
77159;BME280;66129;45.890;13.714;2023-03-01T05:48:37;101181.00;;;5.68;53.24
77159;BME280;66129;45.890;13.714;2023-03-01T05:51:04;101115.22;;;5.20;53.36
77159;BME280;66129;45.890;13.714;2023-03-01T05:53:29;101173.72;;;5.39;53.99
77159;BME280;66129;45.890;13.714;2023-03-01T05:55:55;101128.09;;;5.06;54.18
77159;BME280;66129;45.890;13.714;2023-03-01T05:58:21;101079.63;;;4.84;54.49
77159;BME280;66129;45.890;13.714;2023-03-01T06:00:57;101110.56;;;5.12;54.14
77159;BME280;66129;45.890;13.714;2023-03-01T06:03:23;101069.44;;;4.84;54.16
77159;BME280;66129;45.890;13.714;2023-03-01T06:05:56;101177.50;;;5.47;54.18
77159;BME280;66129;45.890;13.714;2023-03-01T06:08:22;101085.34;;;4.80;53.81
77159;BME280;66129;45.890;13.714;2023-03-01T06:10:47;101146.81;;;5.08;54.31
77159;BME280;66129;45.890;13.714;2023-03-01T06:13:13;101202.03;;;5.29;54.49
77159;BME280;66129;45.890;13.714;2023-03-01T06:15:38;101089.13;;;4.88;54.12
77159;BME280;66129;45.890;13.714;2023-03-01T06:18:06;101077.59;;;4.94;53.47
77159;BME280;66129;45.890;13.714;2023-03-01T06:20:32;101174.91;;;5.64;53.63
77159;BME280;66129;45.890;13.714;2023-03-01T06:22:57;101103.53;;;5.24;53.26
77159;BME280;66129;45.890;13.714;2023-03-01T06:25:25;101111.72;;;5.54;52.96
77159;BME280;66129;45.890;13.714;2023-03-01T06:28:01;101087.91;;;5.34;53.22
77159;BME280;66129;45.890;13.714;2023-03-01T06:30:26;101102.56;;;5.58;52.96
77159;BME280;66129;45.890;13.714;2023-03-01T06:32:52;101120.75;;;5.48;53.00
77159;BME280;66129;45.890;13.714;2023-03-01T06:35:23;101091.31;;;5.34;53.23
77159;BME280;66129;45.890;13.714;2023-03-01T06:37:51;101159.84;;;5.69;53.09
77159;BME280;66129;45.890;13.714;2023-03-01T06:40:16;101164.00;;;5.67;53.24
77159;BME280;66129;45.890;13.714;2023-03-01T06:42:47;101169.38;;;5.73;53.26
77159;BME280;66129;45.890;13.714;2023-03-01T06:45:14;101078.78;;;5.20;52.95
77159;BME280;66129;45.890;13.714;2023-03-01T06:47:47;101094.59;;;5.32;53.34
77159;BME280;66129;45.890;13.714;2023-03-01T06:50:14;101152.88;;;5.65;53.38
77159;BME280;66129;45.890;13.714;2023-03-01T06:52:40;101150.47;;;5.68;53.30
77159;BME280;66129;45.890;13.714;2023-03-01T06:55:09;101071.84;;;5.35;53.12
77159;BME280;66129;45.890;13.714;2023-03-01T06:57:34;101151.41;;;5.87;52.87
77159;BME280;66129;45.890;13.714;2023-03-01T07:00:04;101066.97;;;5.39;52.71
77159;BME280;66129;45.890;13.714;2023-03-01T07:02:35;101086.44;;;5.57;52.40
77159;BME280;66129;45.890;13.714;2023-03-01T07:05:01;101168.53;;;6.10;52.51
77159;BME280;66129;45.890;13.714;2023-03-01T07:07:26;101082.00;;;5.72;52.93
77159;BME280;66129;45.890;13.714;2023-03-01T07:09:51;101088.75;;;5.89;52.46
77159;BME280;66129;45.890;13.714;2023-03-01T07:12:18;101044.66;;;5.71;52.25
77159;BME280;66129;45.890;13.714;2023-03-01T07:14:44;101056.09;;;5.79;52.51
77159;BME280;66129;45.890;13.714;2023-03-01T07:17:09;101104.19;;;6.13;52.50
77159;BME280;66129;45.890;13.714;2023-03-01T07:19:35;101110.00;;;6.29;52.41
77159;BME280;66129;45.890;13.714;2023-03-01T07:22:00;101081.47;;;6.17;51.96
77159;BME280;66129;45.890;13.714;2023-03-01T07:24:26;101129.72;;;6.35;51.67
77159;BME280;66129;45.890;13.714;2023-03-01T07:26:52;101059.75;;;6.05;52.16
77159;BME280;66129;45.890;13.714;2023-03-01T07:29:19;101070.53;;;5.80;51.94
77159;BME280;66129;45.890;13.714;2023-03-01T07:31:44;101040.28;;;5.86;52.29
77159;BME280;66129;45.890;13.714;2023-03-01T07:34:10;101101.88;;;6.19;51.79
77159;BME280;66129;45.890;13.714;2023-03-01T07:36:41;101139.38;;;6.42;51.74
77159;BME280;66129;45.890;13.714;2023-03-01T07:39:10;101045.16;;;6.01;51.48
77159;BME280;66129;45.890;13.714;2023-03-01T07:41:39;101041.94;;;6.05;51.53
77159;BME280;66129;45.890;13.714;2023-03-01T07:44:04;101059.88;;;6.28;51.33
77159;BME280;66129;45.890;13.714;2023-03-01T07:46:39;101097.47;;;6.54;50.81
77159;BME280;66129;45.890;13.714;2023-03-01T07:49:05;101088.59;;;6.87;50.30
77159;BME280;66129;45.890;13.714;2023-03-01T07:51:30;101068.56;;;7.40;48.65
77159;BME280;66129;45.890;13.714;2023-03-01T07:53:56;101083.09;;;8.12;47.38
77159;BME280;66129;45.890;13.714;2023-03-01T07:56:24;101107.91;;;8.65;46.21
77159;BME280;66129;45.890;13.714;2023-03-01T07:58:51;101041.28;;;8.09;46.09
77159;BME280;66129;45.890;13.714;2023-03-01T08:01:24;101008.47;;;7.96;46.35
77159;BME280;66129;45.890;13.714;2023-03-01T08:03:49;101019.34;;;8.39;45.67
77159;BME280;66129;45.890;13.714;2023-03-01T08:06:16;101085.88;;;9.22;44.42
77159;BME280;66129;45.890;13.714;2023-03-01T08:08:43;101031.97;;;9.16;43.72
77159;BME280;66129;45.890;13.714;2023-03-01T08:11:11;101051.66;;;9.47;43.23
77159;BME280;66129;45.890;13.714;2023-03-01T08:13:37;101090.31;;;9.87;43.16
77159;BME280;66129;45.890;13.714;2023-03-01T08:16:05;101074.69;;;10.07;42.50
77159;BME280;66129;45.890;13.714;2023-03-01T08:18:31;101078.50;;;9.91;41.98
77159;BME280;66129;45.890;13.714;2023-03-01T08:21:08;101090.28;;;9.85;42.72
77159;BME280;66129;45.890;13.714;2023-03-01T08:23:35;101075.81;;;9.87;42.24
77159;BME280;66129;45.890;13.714;2023-03-01T08:26:16;101063.59;;;10.08;41.33
77159;BME280;66129;45.890;13.714;2023-03-01T08:28:42;101084.31;;;10.83;40.75
77159;BME280;66129;45.890;13.714;2023-03-01T08:31:21;101107.06;;;10.70;41.14
77159;BME280;66129;45.890;13.714;2023-03-01T08:33:49;101015.44;;;10.27;41.22
77159;BME280;66129;45.890;13.714;2023-03-01T08:36:20;101040.47;;;10.37;41.30
77159;BME280;66129;45.890;13.714;2023-03-01T08:38:46;100964.22;;;9.95;41.99
77159;BME280;66129;45.890;13.714;2023-03-01T08:41:11;101095.75;;;10.28;42.57
77159;BME280;66129;45.890;13.714;2023-03-01T08:43:37;101030.22;;;10.03;42.37
77159;BME280;66129;45.890;13.714;2023-03-01T08:46:02;101068.41;;;10.27;41.86
77159;BME280;66129;45.890;13.714;2023-03-01T08:48:30;101070.16;;;10.63;41.79
77159;BME280;66129;45.890;13.714;2023-03-01T08:51:13;101038.59;;;10.66;41.28
77159;BME280;66129;45.890;13.714;2023-03-01T08:53:39;101041.19;;;10.67;41.60
77159;BME280;66129;45.890;13.714;2023-03-01T08:56:05;101022.44;;;10.33;41.82
77159;BME280;66129;45.890;13.714;2023-03-01T08:58:31;101022.72;;;10.11;42.47
77159;BME280;66129;45.890;13.714;2023-03-01T09:00:57;100979.78;;;10.01;42.98
77159;BME280;66129;45.890;13.714;2023-03-01T09:03:23;101046.38;;;10.35;42.36
77159;BME280;66129;45.890;13.714;2023-03-01T09:05:49;101055.50;;;10.24;42.49
77159;BME280;66129;45.890;13.714;2023-03-01T09:08:18;100970.03;;;9.56;42.98
77159;BME280;66129;45.890;13.714;2023-03-01T09:10:44;101039.81;;;9.81;43.35
77159;BME280;66129;45.890;13.714;2023-03-01T09:13:11;101047.81;;;9.93;43.03
77159;BME280;66129;45.890;13.714;2023-03-01T09:15:37;101008.97;;;9.77;42.63
77159;BME280;66129;45.890;13.714;2023-03-01T09:18:03;101026.84;;;10.38;42.42
77159;BME280;66129;45.890;13.714;2023-03-01T09:20:30;100995.00;;;10.64;41.49
77159;BME280;66129;45.890;13.714;2023-03-01T09:22:57;101050.34;;;10.93;41.14
77159;BME280;66129;45.890;13.714;2023-03-01T09:25:22;101000.88;;;10.97;40.89
77159;BME280;66129;45.890;13.714;2023-03-01T09:27:51;100927.97;;;10.48;41.08
77159;BME280;66129;45.890;13.714;2023-03-01T09:30:18;100992.50;;;10.67;41.05
77159;BME280;66129;45.890;13.714;2023-03-01T09:32:44;101042.28;;;11.13;41.40
77159;BME280;66129;45.890;13.714;2023-03-01T09:35:11;101031.38;;;11.23;40.83
77159;BME280;66129;45.890;13.714;2023-03-01T09:37:37;100935.03;;;10.98;40.40
77159;BME280;66129;45.890;13.714;2023-03-01T09:40:04;101029.38;;;11.52;40.11
77159;BME280;66129;45.890;13.714;2023-03-01T09:42:35;101005.06;;;10.94;40.10
77159;BME280;66129;45.890;13.714;2023-03-01T09:45:02;101058.41;;;11.48;40.52
77159;BME280;66129;45.890;13.714;2023-03-01T09:47:34;100991.75;;;10.71;40.78
77159;BME280;66129;45.890;13.714;2023-03-01T09:52:42;101076.31;;;11.06;40.69
77159;BME280;66129;45.890;13.714;2023-03-01T09:55:17;100977.25;;;10.73;41.03
77159;BME280;66129;45.890;13.714;2023-03-01T09:58:00;101037.28;;;11.21;40.62
77159;BME280;66129;45.890;13.714;2023-03-01T10:00:42;101067.63;;;11.40;40.79
77159;BME280;66129;45.890;13.714;2023-03-01T10:06:24;100996.50;;;10.56;41.51
77159;BME280;66129;45.890;13.714;2023-03-01T10:09:13;101075.06;;;10.90;41.68
77159;BME280;66129;45.890;13.714;2023-03-01T10:11:50;101047.34;;;10.74;41.88
77159;BME280;66129;45.890;13.714;2023-03-01T10:19:38;101041.00;;;9.93;44.36
77159;BME280;66129;45.890;13.714;2023-03-01T10:24:37;101061.41;;;10.21;43.80
77159;BME280;66129;45.890;13.714;2023-03-01T10:29:49;101070.44;;;9.78;44.63
77159;BME280;66129;45.890;13.714;2023-03-01T10:32:19;101071.09;;;9.42;45.89
77159;BME280;66129;45.890;13.714;2023-03-01T10:34:47;101072.38;;;9.00;47.23
77159;BME280;66129;45.890;13.714;2023-03-01T10:37:18;101074.19;;;8.76;47.88
77159;BME280;66129;45.890;13.714;2023-03-01T10:40:07;100988.69;;;8.14;47.93
77159;BME280;66129;45.890;13.714;2023-03-01T10:42:36;100989.88;;;8.23;48.26
77159;BME280;66129;45.890;13.714;2023-03-01T10:50:22;101004.59;;;8.05;49.42
77159;BME280;66129;45.890;13.714;2023-03-01T10:53:05;101054.53;;;8.22;49.77
77159;BME280;66129;45.890;13.714;2023-03-01T10:55:41;101033.44;;;8.28;49.13
77159;BME280;66129;45.890;13.714;2023-03-01T10:58:15;101069.25;;;8.56;48.96
77159;BME280;66129;45.890;13.714;2023-03-01T11:00:59;101019.09;;;8.31;48.70
77159;BME280;66129;45.890;13.714;2023-03-01T11:03:32;101083.69;;;8.54;49.36
77159;BME280;66129;45.890;13.714;2023-03-01T11:08:43;101090.00;;;8.65;49.03
77159;BME280;66129;45.890;13.714;2023-03-01T11:13:35;101064.28;;;8.34;49.56
77159;BME280;66129;45.890;13.714;2023-03-01T11:16:05;101037.06;;;8.09;49.48
77159;BME280;66129;45.890;13.714;2023-03-01T11:18:34;101080.03;;;8.46;49.55
77159;BME280;66129;45.890;13.714;2023-03-01T11:21:01;101056.25;;;8.22;49.95
77159;BME280;66129;45.890;13.714;2023-03-01T11:23:29;101048.34;;;8.16;50.16
77159;BME280;66129;45.890;13.714;2023-03-01T11:26:02;101015.97;;;7.67;50.38
77159;BME280;66129;45.890;13.714;2023-03-01T11:28:37;101100.34;;;8.18;50.95
77159;BME280;66129;45.890;13.714;2023-03-01T11:31:10;101108.38;;;8.28;50.91
77159;BME280;66129;45.890;13.714;2023-03-01T11:34:12;101093.00;;;8.03;51.17
77159;BME280;66129;45.890;13.714;2023-03-01T11:36:59;101022.56;;;7.60;51.22
77159;BME280;66129;45.890;13.714;2023-03-01T11:39:59;101092.19;;;8.04;51.68
77159;BME280;66129;45.890;13.714;2023-03-01T11:42:50;101125.81;;;8.41;51.35
77159;BME280;66129;45.890;13.714;2023-03-01T11:50:49;101092.38;;;8.10;51.16
77159;BME280;66129;45.890;13.714;2023-03-01T11:59:26;101148.38;;;8.06;51.52
77159;BME280;66129;45.890;13.714;2023-03-01T12:06:52;101092.88;;;7.54;51.93
77159;BME280;66129;45.890;13.714;2023-03-01T12:09:41;101042.97;;;7.15;52.34
77159;BME280;66129;45.890;13.714;2023-03-01T12:23:23;101173.25;;;7.88;52.04
77159;BME280;66129;45.890;13.714;2023-03-01T12:26:03;101153.78;;;7.90;51.42
77159;BME280;66129;45.890;13.714;2023-03-01T12:28:46;101140.56;;;7.78;51.94
77159;BME280;66129;45.890;13.714;2023-03-01T12:31:35;101130.63;;;7.85;51.85
77159;BME280;66129;45.890;13.714;2023-03-01T12:42:20;101154.19;;;8.02;52.31
77159;BME280;66129;45.890;13.714;2023-03-01T12:45:01;101174.03;;;8.09;51.59
77159;BME280;66129;45.890;13.714;2023-03-01T12:47:39;101154.59;;;7.89;52.56
77159;BME280;66129;45.890;13.714;2023-03-01T12:50:38;101133.88;;;7.81;52.44
77159;BME280;66129;45.890;13.714;2023-03-01T12:53:32;101097.22;;;7.56;52.93
77159;BME280;66129;45.890;13.714;2023-03-01T12:56:10;101049.31;;;7.26;53.15
77159;BME280;66129;45.890;13.714;2023-03-01T13:06:54;101127.47;;;7.69;53.84
77159;BME280;66129;45.890;13.714;2023-03-01T13:12:02;101115.34;;;7.64;53.69
77159;BME280;66129;45.890;13.714;2023-03-01T13:16:56;101023.47;;;7.39;53.88
77159;BME280;66129;45.890;13.714;2023-03-01T13:19:23;100955.50;;;7.16;53.04
77159;BME280;66129;45.890;13.714;2023-03-01T13:21:51;100990.09;;;7.33;52.89
77159;BME280;66129;45.890;13.714;2023-03-01T13:24:38;101079.91;;;7.94;53.18
77159;BME280;66129;45.890;13.714;2023-03-01T13:29:52;101066.41;;;7.73;53.14
77159;BME280;66129;45.890;13.714;2023-03-01T13:32:42;101013.31;;;7.40;53.20
77159;BME280;66129;45.890;13.714;2023-03-01T13:37:37;101113.91;;;7.93;53.45
77159;BME280;66129;45.890;13.714;2023-03-01T13:42:47;101104.28;;;7.86;53.17
77159;BME280;66129;45.890;13.714;2023-03-01T13:47:50;101083.75;;;7.83;53.04
77159;BME280;66129;45.890;13.714;2023-03-01T13:50:23;101107.06;;;7.92;53.12
77159;BME280;66129;45.890;13.714;2023-03-01T13:52:59;101063.19;;;7.56;53.71
77159;BME280;66129;45.890;13.714;2023-03-01T13:55:40;101084.16;;;7.70;54.13
77159;BME280;66129;45.890;13.714;2023-03-01T13:58:33;101086.50;;;7.88;53.60
77159;BME280;66129;45.890;13.714;2023-03-01T14:03:55;101046.22;;;7.56;54.89
77159;BME280;66129;45.890;13.714;2023-03-01T14:06:27;101112.16;;;7.69;55.31
77159;BME280;66129;45.890;13.714;2023-03-01T14:09:18;101102.22;;;7.53;55.75
77159;BME280;66129;45.890;13.714;2023-03-01T14:17:33;101084.19;;;7.27;56.60
77159;BME280;66129;45.890;13.714;2023-03-01T14:20:25;101046.25;;;7.12;56.68
77159;BME280;66129;45.890;13.714;2023-03-01T14:22:51;101085.81;;;7.25;56.70
77159;BME280;66129;45.890;13.714;2023-03-01T14:25:26;101033.13;;;7.02;57.44
77159;BME280;66129;45.890;13.714;2023-03-01T14:27:57;101023.75;;;7.01;56.84
77159;BME280;66129;45.890;13.714;2023-03-01T14:30:30;101046.06;;;7.30;56.74
77159;BME280;66129;45.890;13.714;2023-03-01T14:33:02;100996.47;;;6.98;56.86
77159;BME280;66129;45.890;13.714;2023-03-01T14:35:31;101041.31;;;7.39;56.49
77159;BME280;66129;45.890;13.714;2023-03-01T14:37:57;101015.75;;;7.14;56.45
77159;BME280;66129;45.890;13.714;2023-03-01T14:40:35;101036.56;;;7.26;57.00
77159;BME280;66129;45.890;13.714;2023-03-01T14:43:08;101041.06;;;7.31;57.04
77159;BME280;66129;45.890;13.714;2023-03-01T14:45:35;101005.63;;;7.39;55.66
77159;BME280;66129;45.890;13.714;2023-03-01T14:48:02;101030.13;;;7.59;56.17
77159;BME280;66129;45.890;13.714;2023-03-01T14:50:31;101033.34;;;7.76;55.18
77159;BME280;66129;45.890;13.714;2023-03-01T14:53:03;101024.06;;;7.78;55.49
77159;BME280;66129;45.890;13.714;2023-03-01T14:55:35;101023.28;;;7.81;55.35
77159;BME280;66129;45.890;13.714;2023-03-01T14:58:09;100997.25;;;7.66;55.52
77159;BME280;66129;45.890;13.714;2023-03-01T15:00:37;101012.66;;;7.69;55.48
77159;BME280;66129;45.890;13.714;2023-03-01T15:03:11;101024.25;;;7.84;55.27
77159;BME280;66129;45.890;13.714;2023-03-01T15:05:39;101019.81;;;7.79;55.31
77159;BME280;66129;45.890;13.714;2023-03-01T15:08:05;101020.28;;;7.68;55.53
77159;BME280;66129;45.890;13.714;2023-03-01T15:10:34;101037.66;;;7.77;55.56
77159;BME280;66129;45.890;13.714;2023-03-01T15:13:19;101041.94;;;7.78;55.22
77159;BME280;66129;45.890;13.714;2023-03-01T15:15:47;101025.69;;;7.76;55.86
77159;BME280;66129;45.890;13.714;2023-03-01T15:18:22;101002.56;;;7.72;55.82
77159;BME280;66129;45.890;13.714;2023-03-01T15:20:49;100965.16;;;7.48;55.14
77159;BME280;66129;45.890;13.714;2023-03-01T15:23:26;101021.53;;;7.78;55.87
77159;BME280;66129;45.890;13.714;2023-03-01T15:25:54;100996.63;;;7.73;55.44